Strona główna
METAR-TAF:

METAR-TAF

Lotnisko :

Port lotniczy Biak-Frans Kaisiepo

Biak, Indonezja

Szerokość geograficzna: 01-11S, Długość geograficzna: 136-07E, wysokość: 11 m

Aktualna obserwacja pogody

Raport powstał 42 minut temu, godzina 15:00 UTC
Wiatr 4 kt od północny zachód
Temperatura 27°C
Wilgotność 89%
Ciśnienie 1008 hPa
Widzialność 10 km lub więcej
Mało chmury na wysokości 1800 ft

METAR: WABB 141500Z 31004KT 9999 FEW018 27/25 Q1008 NOSIG

czas: 22:42 (15:42 UTC)

Prognoza

Raport powstał 5 godziny i 42 minut temu, godzina 10:00 UTC
Prognoza ważna od 14 godzina 12 UTC do 15 godzina 18 UTC
Wiatr 3 kt od północny wschód
Widzialność 10 km lub więcej
Rozproszone chmury na wysokości 1800 ft
Stopniowe zmiany
od 14 godzina 15 UTC do 14 godzina 17 UTC
Wiatr kt od północ

TAF: WABB 141000Z 1412/1518 05003KT 9999 SCT018 BECMG 1415/1417 00000KT

Obserwacja i prognoza pogody dla ponad 4000 lotnisk (raport METAR i TAF).

Dostępne stacje oznaczono żółtymi i czerwonymi punktami na mapie.

Najedź kursorem aby zobaczyć nazwę stacji.

Kliknij aby zobaczyć obserwacje i prognozy pogody.

Aby zmienić mapę: kliknij na zielony przycisk z czarnym krzyżykiem, aby powiększyć; na zielony przycisk z myślnikiem, aby pomniejszyć; na zielone strzałki, aby przejść do map sąsiednich.


METAR-TAF: